createdAt,value
2019-02-09T00:00:38.739Z,7.90
2019-02-09T00:05:43.799Z,7.90
2019-02-09T00:10:49.877Z,7.90
2019-02-09T00:15:54.872Z,8.00
2019-02-09T00:21:01.754Z,8.00
2019-02-09T00:26:06.808Z,8.00
2019-02-09T00:31:11.846Z,8.00
2019-02-09T00:36:16.883Z,8.10
2019-02-09T00:41:21.907Z,8.00
2019-02-09T00:46:26.895Z,8.10
2019-02-09T00:51:31.940Z,8.00
2019-02-09T00:56:36.915Z,8.10
2019-02-09T01:01:41.900Z,8.10
2019-02-09T01:06:46.904Z,8.00
2019-02-09T01:11:51.943Z,8.10
2019-02-09T01:16:57.241Z,8.10
2019-02-09T01:22:02.261Z,8.10
2019-02-09T01:27:07.248Z,8.20
2019-02-09T01:32:12.251Z,8.20
2019-02-09T01:37:17.454Z,8.10
2019-02-09T01:42:22.727Z,8.10
2019-02-09T01:47:27.731Z,8.10
2019-02-09T01:52:32.720Z,8.10
2019-02-09T01:57:38.115Z,8.00
2019-02-09T02:02:43.118Z,7.90
2019-02-09T02:07:48.124Z,7.90
2019-02-09T02:12:53.728Z,7.80
2019-02-09T02:17:58.935Z,7.80
2019-02-09T02:23:04.664Z,7.80
2019-02-09T02:28:09.978Z,7.70
2019-02-09T02:33:15.277Z,7.70
2019-02-09T02:38:20.318Z,7.70
2019-02-09T02:43:25.327Z,7.80
2019-02-09T02:48:30.326Z,7.80
2019-02-09T02:53:35.331Z,7.80
2019-02-09T02:58:40.340Z,7.70
2019-02-09T03:03:46.497Z,7.30
2019-02-09T03:08:51.530Z,7.00
2019-02-09T03:13:56.599Z,6.90
2019-02-09T03:19:01.595Z,6.60
2019-02-09T03:24:06.638Z,6.40
2019-02-09T03:29:11.594Z,6.30
2019-02-09T03:34:16.656Z,6.10
2019-02-09T03:39:21.668Z,5.90
2019-02-09T03:44:26.672Z,5.90
2019-02-09T03:49:31.699Z,5.90
2019-02-09T03:54:36.721Z,6.00
2019-02-09T03:59:41.741Z,6.10
2019-02-09T04:04:46.732Z,6.10
2019-02-09T04:09:51.745Z,6.10
2019-02-09T04:14:56.788Z,6.10
2019-02-09T04:20:02.023Z,6.10
2019-02-09T04:25:08.035Z,6.20
2019-02-09T04:30:33.587Z,6.40
2019-02-09T04:35:38.920Z,6.60
2019-02-09T04:40:43.922Z,6.90
2019-02-09T04:45:48.954Z,6.90
2019-02-09T04:50:53.948Z,7.00
2019-02-09T04:55:59.103Z,7.10
2019-02-09T05:01:04.652Z,7.10
2019-02-09T05:06:09.675Z,7.10
2019-02-09T05:11:14.705Z,7.10
2019-02-09T05:16:19.716Z,7.10
2019-02-09T05:21:24.784Z,7.20
2019-02-09T05:26:29.798Z,7.20
2019-02-09T05:31:34.809Z,7.20
2019-02-09T05:36:39.806Z,7.40
2019-02-09T05:41:44.800Z,7.40
2019-02-09T05:46:49.840Z,7.50
2019-02-09T05:51:54.857Z,7.50
2019-02-09T05:56:59.873Z,7.60
2019-02-09T06:02:04.869Z,7.50
2019-02-09T06:07:09.851Z,7.50
2019-02-09T06:12:14.997Z,7.50
2019-02-09T06:17:19.994Z,7.50
2019-02-09T06:22:25.019Z,7.50
2019-02-09T06:27:30.032Z,7.60
2019-02-09T06:32:35.238Z,7.60
2019-02-09T06:37:40.283Z,7.50
2019-02-09T06:42:45.347Z,7.50
2019-02-09T06:47:50.346Z,7.60
2019-02-09T06:52:55.352Z,7.50
2019-02-09T06:58:00.359Z,7.40
2019-02-09T07:03:05.571Z,7.30
2019-02-09T07:08:10.687Z,7.20
2019-02-09T07:13:15.954Z,7.30
2019-02-09T07:18:20.951Z,7.30
2019-02-09T07:23:25.973Z,7.40
2019-02-09T07:28:31.033Z,7.30
2019-02-09T07:33:36.052Z,7.40
2019-02-09T07:38:41.099Z,7.30
2019-02-09T07:43:46.117Z,7.40
2019-02-09T07:48:51.141Z,7.40
2019-02-09T07:53:56.169Z,7.50
2019-02-09T07:59:01.197Z,7.70
2019-02-09T08:04:07.188Z,7.60
2019-02-09T08:09:13.510Z,7.50
2019-02-09T08:14:18.526Z,7.60
2019-02-09T08:19:23.536Z,7.70
2019-02-09T08:24:28.528Z,7.70
2019-02-09T08:29:33.544Z,7.70
2019-02-09T08:34:38.548Z,7.80
2019-02-09T08:39:43.602Z,7.80
2019-02-09T08:44:48.612Z,7.90
2019-02-09T08:49:53.645Z,8.00
2019-02-09T08:54:58.664Z,8.00
2019-02-09T09:00:05.672Z,8.10
2019-02-09T09:05:11.888Z,8.00
2019-02-09T09:10:17.997Z,8.10
2019-02-09T09:15:25.865Z,8.30
2019-02-09T09:20:33.315Z,8.30
2019-02-09T09:25:38.330Z,8.30
2019-02-09T09:30:43.358Z,8.30
2019-02-09T09:35:48.397Z,8.30
2019-02-09T09:40:53.417Z,8.40
2019-02-09T09:45:58.848Z,8.40
2019-02-09T09:51:05.295Z,8.50
2019-02-09T09:56:10.322Z,8.50
2019-02-09T10:01:15.332Z,8.50
2019-02-09T10:06:20.419Z,8.60
2019-02-09T10:11:25.449Z,8.60
2019-02-09T10:16:30.465Z,8.60
2019-02-09T10:21:35.486Z,8.80
2019-02-09T10:26:40.508Z,8.80
2019-02-09T10:31:45.510Z,8.80
2019-02-09T10:36:50.512Z,8.90
2019-02-09T10:41:55.607Z,8.90
2019-02-09T10:47:03.268Z,9.00
2019-02-09T10:52:08.392Z,9.10
2019-02-09T10:57:13.407Z,9.10
2019-02-09T11:02:18.417Z,9.10
2019-02-09T11:07:23.456Z,9.10
2019-02-09T11:12:28.476Z,9.00
2019-02-09T11:17:33.483Z,9.10
2019-02-09T11:22:38.639Z,9.10
2019-02-09T11:27:43.650Z,9.10
2019-02-09T11:32:49.183Z,9.10
2019-02-09T11:37:54.565Z,9.10
2019-02-09T11:43:00.497Z,9.10
2019-02-09T11:48:06.565Z,9.10
2019-02-09T11:53:12.137Z,9.10
2019-02-09T11:58:17.156Z,9.10
2019-02-09T12:03:22.170Z,9.10
2019-02-09T12:08:27.201Z,9.10
2019-02-09T12:13:32.213Z,9.00
2019-02-09T12:18:37.236Z,9.00
2019-02-09T12:23:42.489Z,9.00
2019-02-09T12:28:47.526Z,9.10
2019-02-09T12:33:52.563Z,9.10
2019-02-09T12:38:57.612Z,9.20
2019-02-09T12:44:02.630Z,9.20
2019-02-09T12:49:08.012Z,9.20
2019-02-09T12:54:13.028Z,9.10
2019-02-09T12:59:18.041Z,9.10
2019-02-09T13:04:23.077Z,9.10
2019-02-09T13:09:28.093Z,8.90
2019-02-09T13:14:33.109Z,8.70
2019-02-09T13:19:38.121Z,8.50
2019-02-09T13:24:43.147Z,8.60
2019-02-09T13:29:48.253Z,8.70
2019-02-09T13:34:53.505Z,8.70
2019-02-09T13:39:58.567Z,8.60
2019-02-09T13:45:03.892Z,8.60
2019-02-09T13:50:10.842Z,8.70
2019-02-09T13:55:16.157Z,8.70
2019-02-09T14:00:22.790Z,8.70
2019-02-09T14:05:27.805Z,8.80
2019-02-09T14:10:32.810Z,8.80
2019-02-09T14:15:37.836Z,8.80
2019-02-09T14:20:42.855Z,8.80
2019-02-09T14:25:50.359Z,8.80
2019-02-09T14:30:54.489Z,8.90
2019-02-09T14:35:59.506Z,8.90
2019-02-09T14:41:05.040Z,8.80
2019-02-09T14:46:10.456Z,8.80
2019-02-09T14:51:15.505Z,8.70
2019-02-09T14:56:20.546Z,8.70
2019-02-09T15:01:25.569Z,8.70
2019-02-09T15:06:32.344Z,8.60
2019-02-09T15:11:37.435Z,8.50
2019-02-09T15:16:45.636Z,8.50
2019-02-09T15:21:50.661Z,8.50
2019-02-09T15:26:55.788Z,8.50
2019-02-09T15:32:00.809Z,8.50
2019-02-09T15:37:06.133Z,8.50
2019-02-09T15:42:11.197Z,8.40
2019-02-09T15:47:16.246Z,8.50
2019-02-09T15:52:21.306Z,8.50
2019-02-09T15:57:26.334Z,8.50
2019-02-09T16:02:31.370Z,8.40
2019-02-09T16:07:36.417Z,8.40
2019-02-09T16:12:41.440Z,8.40
2019-02-09T16:17:46.894Z,8.40
2019-02-09T16:22:52.315Z,8.40
2019-02-09T16:27:57.390Z,8.40
2019-02-09T16:33:03.905Z,8.40
2019-02-09T16:38:08.952Z,8.40
2019-02-09T16:43:14.253Z,8.40
2019-02-09T16:48:19.285Z,8.40
2019-02-09T16:53:24.323Z,8.30
2019-02-09T16:58:29.599Z,8.40
2019-02-09T17:03:34.576Z,8.40
2019-02-09T17:08:41.352Z,8.30
2019-02-09T17:13:46.364Z,8.40
2019-02-09T17:18:51.374Z,8.30
2019-02-09T17:23:56.414Z,8.30
2019-02-09T17:29:01.478Z,8.40
2019-02-09T17:34:06.492Z,8.40
2019-02-09T17:39:12.001Z,8.30
2019-02-09T17:44:17.054Z,8.30
2019-02-09T17:49:22.075Z,8.20
2019-02-09T17:54:27.114Z,8.20
2019-02-09T17:59:32.143Z,8.00
2019-02-09T18:04:37.148Z,8.00
2019-02-09T18:09:44.943Z,7.90
2019-02-09T18:14:49.920Z,7.90
2019-02-09T18:19:54.950Z,8.10
2019-02-09T18:24:59.984Z,7.90
2019-02-09T18:30:07.647Z,7.90
2019-02-09T18:35:12.897Z,7.80
2019-02-09T18:40:19.850Z,7.60
2019-02-09T18:45:26.594Z,7.70
2019-02-09T18:50:31.947Z,7.60
2019-02-09T18:55:36.966Z,7.60
2019-02-09T19:00:42.448Z,7.70
2019-02-09T19:05:47.417Z,7.70
2019-02-09T19:10:52.444Z,7.60
2019-02-09T19:15:57.453Z,7.60
2019-02-09T19:21:03.168Z,7.60
2019-02-09T19:26:08.172Z,7.60
2019-02-09T19:31:13.194Z,7.60
2019-02-09T19:36:18.212Z,7.50
2019-02-09T19:41:23.245Z,7.50
2019-02-09T19:46:28.312Z,7.40
2019-02-09T19:51:33.335Z,7.40
2019-02-09T19:56:38.370Z,7.40
2019-02-09T20:01:43.390Z,7.40
2019-02-09T20:11:58.977Z,7.20
2019-02-09T20:17:04.004Z,7.10
2019-02-09T20:22:09.442Z,7.20
2019-02-09T20:27:14.503Z,7.10
2019-02-09T20:32:19.523Z,7.20
2019-02-09T20:37:24.588Z,7.20
2019-02-09T20:42:29.614Z,7.10
2019-02-09T20:47:35.033Z,7.20
2019-02-09T20:52:40.074Z,7.30
2019-02-09T20:57:45.390Z,7.30
2019-02-09T21:02:50.521Z,7.20
2019-02-09T21:07:55.589Z,7.10
2019-02-09T21:13:00.586Z,7.10
2019-02-09T21:18:07.008Z,7.00
2019-02-09T21:23:12.460Z,7.10
2019-02-09T21:28:17.481Z,7.20
2019-02-09T21:33:22.528Z,7.30
2019-02-09T21:38:27.561Z,7.20
2019-02-09T21:43:32.601Z,7.20
2019-02-09T21:48:37.614Z,7.40
2019-02-09T21:53:42.632Z,7.50
2019-02-09T21:58:47.641Z,7.60
2019-02-09T22:03:52.713Z,7.70
2019-02-09T22:08:58.004Z,7.70
2019-02-09T22:14:03.104Z,7.70
2019-02-09T22:19:08.123Z,7.80
2019-02-09T22:24:13.328Z,7.80
2019-02-09T22:29:19.156Z,7.70
2019-02-09T22:34:25.751Z,7.60
2019-02-09T22:39:30.767Z,7.50
2019-02-09T22:44:35.834Z,7.50
2019-02-09T22:49:40.841Z,7.50
2019-02-09T22:54:45.857Z,7.60
2019-02-09T22:59:50.860Z,7.80
2019-02-09T23:05:35.813Z,7.70
2019-02-09T23:10:41.029Z,7.80
2019-02-09T23:15:46.040Z,7.80
2019-02-09T23:20:51.044Z,7.80
2019-02-09T23:25:56.038Z,7.70
2019-02-09T23:31:01.060Z,7.70
2019-02-09T23:36:06.301Z,7.60
2019-02-09T23:41:11.585Z,7.60
2019-02-09T23:46:16.615Z,7.60
2019-02-09T23:51:21.701Z,7.60
2019-02-09T23:56:26.721Z,7.60
